Main page
METAR-TAF:

METAR-TAF

Airports :

Gillespie County Airport

Fredericksburg, Texas, United States

latitude: 30-14-37N, longitude: 098-54-34W, elevation: 1696 ft

Current weather observation

The report was made 34 minutes ago, at 18:55 UTC
Wind 8 mph from the Southeast with gusts up to 17 mph, varying between East/Southeast and South
Temperature 88°F
Humidity 46%
Pressure 30.00 in. Hg
Visibility: 10 miles
Broken clouds at a height of 6000 ft

METAR: KT82 141855Z AUTO 14007G15KT 110V190 10SM BKN060 31/18 A3000 RMK AO2 T03140182

Time: 14:29 (19:29 UTC)


TAF: missing

Weather observations and forecasts of more than 4000 airports (METAR and TAF reports).

The available stations are represented by yellow and red dots on the map.

Hover mouse over dot to see the name of the station.

Then click to see weather observations and forecasts.

To change the map : click on the green buttons with a black cross to zoom in, on the green button with a dash to zoom out, or on the green arrows for adjacent maps.


METAR-TAF: